| time (UTC) | temp C | wind direction | speed KPH | gust KPH | rain 1hr cm | rain 24hr cm | rain mn cm | humidity % | barometer mb |
| 20260508143037 | 17 | 0.0 | 0.0 | 0.00 | 0.00 | 0.00 | 56 | 1017.3 | |
| 20260508142537 | 17 | 0.0 | 0.0 | 0.00 | 0.00 | 0.00 | 55 | 1017.2 | |
| 20260508142037 | 17 | 0.0 | 0.0 | 0.00 | 0.00 | 0.00 | 56 | 1017.4 | |
| 20260508141537 | 17 | 0.0 | 0.0 | 0.00 | 0.00 | 0.00 | 55 | 1017.4 | |
| 20260508141037 | 17 | 0.0 | 0.0 | 0.00 | 0.00 | 0.00 | 54 | 1017.3 | |
| 20260508140537 | 17 | 0.0 | 0.0 | 0.00 | 0.00 | 0.00 | 55 | 1017.3 | |
| 20260508140037 | 17 | 0.0 | 0.0 | 0.00 | 0.00 | 0.00 | 55 | 1017.3 | |
| 20260508135537 | 17 | 0.0 | 0.0 | 0.00 | 0.00 | 0.00 | 55 | 1017.4 | |
| 20260508135037 | 17 | 0.0 | 0.0 | 0.00 | 0.00 | 0.00 | 55 | 1017.2 | |
| 20260508134537 | 17 | 0.0 | 0.0 | 0.00 | 0.00 | 0.00 | 53 | 1017.2 | |
| 20260508134037 | 18 | 0.0 | 0.0 | 0.00 | 0.00 | 0.00 | 53 | 1017.3 | |
| 20260508133537 | 18 | 0.0 | 0.0 | 0.00 | 0.00 | 0.00 | 54 | 1017.2 | |
| 20260508133037 | 18 | 0.0 | 0.0 | 0.00 | 0.00 | 0.00 | 54 | 1017.3 | |
| 20260508132537 | 18 | 0.0 | 0.0 | 0.00 | 0.00 | 0.00 | 54 | 1017.2 | |
| 20260508132037 | 17 | 0.0 | 0.0 | 0.00 | 0.00 | 0.00 | 55 | 1017.3 | |
| 20260508131537 | 17 | 0.0 | 0.0 | 0.00 | 0.00 | 0.00 | 55 | 1017.0 | |
| 20260508131037 | 17 | 0.0 | 0.0 | 0.00 | 0.00 | 0.00 | 55 | 1017.3 | |
| 20260508130537 | 17 | 0.0 | 0.0 | 0.00 | 0.00 | 0.00 | 53 | 1016.9 | |
| 20260508130037 | 18 | 0.0 | 0.0 | 0.00 | 0.00 | 0.00 | 54 | 1017.0 | |
| 20260508125537 | 17 | 0.0 | 0.0 | 0.00 | 0.00 | 0.00 | 57 | 1016.9 | |
| 20260508125036 | 16 | 0.0 | 0.0 | 0.00 | 0.00 | 0.00 | 58 | 1017.2 | |
| 20260508124536 | 16 | 0.0 | 0.0 | 0.00 | 0.00 | 0.00 | 58 | 1017.0 | |
| 20260508124036 | 16 | 0.0 | 0.0 | 0.00 | 0.00 | 0.00 | 59 | 1017.0 | |
| 20260508123536 | 16 | 0.0 | 0.0 | 0.00 | 0.00 | 0.00 | 60 | 1016.7 | |
| 20260508123036 | 16 | 0.0 | 0.0 | 0.00 | 0.00 | 0.00 | 59 | 1017.0 | |
| 20260508122536 | 16 | 0.0 | 0.0 | 0.00 | 0.00 | 0.00 | 59 | 1016.8 | |
| 20260508122036 | 17 | 0.0 | 0.0 | 0.00 | 0.00 | 0.00 | 57 | 1016.9 | |
| 20260508121536 | 17 | 0.0 | 0.0 | 0.00 | 0.00 | 0.00 | 58 | 1016.9 | |
| 20260508121036 | 17 | 0.0 | 0.0 | 0.00 | 0.00 | 0.00 | 58 | 1016.8 | |
| 20260508120536 | 17 | 0.0 | 0.0 | 0.00 | 0.00 | 0.00 | 57 | 1016.8 | |
| 20260508120036 | 17 | 0.0 | 0.0 | 0.00 | 0.00 | 0.00 | 58 | 1016.7 | |
| 20260508115536 | 17 | 256 | 3.2 | 6.4 | 0.00 | 0.00 | 0.00 | 56 | 1016.6 |
| 20260508115036 | 17 | 256 | 3.2 | 6.4 | 0.00 | 0.00 | 0.00 | 55 | 1016.8 |
| 20260508114536 | 18 | 0.0 | 0.0 | 0.00 | 0.00 | 0.00 | 55 | 1016.7 | |
| 20260508114036 | 18 | 198 | 3.2 | 4.8 | 0.00 | 0.00 | 0.00 | 56 | 1016.5 |
| 20260508113536 | 18 | 198 | 3.2 | 4.8 | 0.00 | 0.00 | 0.00 | 58 | 1016.6 |
| 20260508113036 | 17 | 165 | 3.2 | 4.8 | 0.00 | 0.00 | 0.00 | 60 | 1016.6 |
| 20260508112536 | 17 | 244 | 6.4 | 9.7 | 0.00 | 0.00 | 0.00 | 60 | 1016.6 |
| 20260508112036 | 17 | 140 | 1.6 | 1.6 | 0.00 | 0.00 | 0.00 | 60 | 1016.6 |
| 20260508111536 | 17 | 169 | 1.6 | 3.2 | 0.00 | 0.00 | 0.00 | 61 | 1016.4 |
| 20260508111036 | 17 | 169 | 1.6 | 3.2 | 0.00 | 0.00 | 0.00 | 61 | 1016.4 |
| 20260508110536 | 16 | 0.0 | 0.0 | 0.00 | 0.00 | 0.00 | 61 | 1016.7 | |
| 20260508110036 | 16 | 0.0 | 0.0 | 0.00 | 0.00 | 0.00 | 62 | 1016.4 | |
| 20260508105536 | 16 | 0.0 | 0.0 | 0.00 | 0.00 | 0.00 | 61 | 1016.6 | |
| 20260508105036 | 16 | 191 | 1.6 | 3.2 | 0.00 | 0.00 | 0.00 | 61 | 1016.5 |
| 20260508104536 | 16 | 191 | 1.6 | 3.2 | 0.00 | 0.00 | 0.00 | 61 | 1016.4 |
| 20260508104036 | 17 | 201 | 3.2 | 3.2 | 0.00 | 0.00 | 0.00 | 61 | 1016.6 |
| 20260508103536 | 17 | 0.0 | 0.0 | 0.00 | 0.00 | 0.00 | 62 | 1016.6 | |
| 20260508103036 | 17 | 0.0 | 0.0 | 0.00 | 0.00 | 0.00 | 61 | 1016.4 | |
| 20260508102536 | 18 | 185 | 3.2 | 3.2 | 0.00 | 0.00 | 0.00 | 62 | 1016.3 |
| 20260508102036 | 17 | 185 | 3.2 | 3.2 | 0.00 | 0.00 | 0.00 | 64 | 1016.4 |
| 20260508101536 | 17 | 309 | 4.8 | 9.7 | 0.00 | 0.00 | 0.00 | 64 | 1016.3 |
| 20260508101037 | 17 | 289 | 1.6 | 3.2 | 0.00 | 0.00 | 0.00 | 66 | 1016.2 |
| 20260508100536 | 16 | 289 | 1.6 | 3.2 | 0.00 | 0.00 | 0.00 | 67 | 1016.4 |
| 20260508100036 | 16 | 247 | 1.6 | 6.4 | 0.00 | 0.00 | 0.00 | 67 | 1016.2 |
| 20260508095536 | 16 | 167 | 1.6 | 3.2 | 0.00 | 0.00 | 0.00 | 69 | 1016.2 |
| 20260508095036 | 15 | 69 | 1.6 | 3.2 | 0.00 | 0.00 | 0.00 | 72 | 1016.3 |
| 20260508094536 | 15 | 156 | 1.6 | 1.6 | 0.00 | 0.00 | 0.00 | 73 | 1016.1 |
| 20260508094036 | 14 | 0.0 | 0.0 | 0.00 | 0.00 | 0.00 | 74 | 1015.9 | |
| 20260508093536 | 13 | 199 | 1.6 | 1.6 | 0.00 | 0.00 | 0.00 | 74 | 1016.3 |
| 20260508093036 | 13 | 199 | 1.6 | 1.6 | 0.00 | 0.00 | 0.00 | 75 | 1016.2 |
| 20260508092536 | 13 | 182 | 1.6 | 3.2 | 0.00 | 0.00 | 0.00 | 75 | 1016.1 |
| 20260508092036 | 12 | 167 | 0.0 | 1.6 | 0.00 | 0.00 | 0.00 | 76 | 1016.2 |
| 20260508091536 | 12 | 167 | 0.0 | 1.6 | 0.00 | 0.00 | 0.00 | 76 | 1016.2 |
| 20260508091036 | 12 | 27 | 1.6 | 3.2 | 0.00 | 0.00 | 0.00 | 76 | 1016.0 |
| 20260508090536 | 12 | 177 | 1.6 | 3.2 | 0.00 | 0.00 | 0.00 | 76 | 1016.0 |
| 20260508090036 | 12 | 34 | 1.6 | 3.2 | 0.00 | 0.00 | 0.00 | 77 | 1016.0 |
| 20260508085536 | 12 | 225 | 3.2 | 4.8 | 0.00 | 0.00 | 0.00 | 77 | 1015.9 |
| 20260508085036 | 12 | 225 | 3.2 | 4.8 | 0.00 | 0.00 | 0.00 | 77 | 1016.0 |
| 20260508084536 | 12 | 96 | 1.6 | 1.6 | 0.00 | 0.00 | 0.00 | 78 | 1016.0 |
| 20260508084036 | 12 | 116 | 1.6 | 3.2 | 0.00 | 0.00 | 0.00 | 78 | 1015.7 |
| 20260508083536 | 12 | 213 | 0.0 | 1.6 | 0.00 | 0.00 | 0.00 | 78 | 1015.9 |
| 20260508083036 | 12 | 213 | 0.0 | 1.6 | 0.00 | 0.00 | 0.00 | 78 | 1015.9 |
| 20260508082536 | 12 | 106 | 1.6 | 1.6 | 0.00 | 0.00 | 0.00 | 79 | 1015.8 |
| 20260508082036 | 12 | 106 | 1.6 | 3.2 | 0.00 | 0.00 | 0.00 | 79 | 1015.6 |
| 20260508081536 | 12 | 232 | 1.6 | 3.2 | 0.00 | 0.00 | 0.00 | 79 | 1015.4 |
| 20260508081036 | 12 | 341 | 3.2 | 4.8 | 0.00 | 0.00 | 0.00 | 79 | 1015.7 |
| 20260508080536 | 12 | 341 | 3.2 | 4.8 | 0.00 | 0.00 | 0.00 | 79 | 1015.4 |
| 20260508080036 | 12 | 207 | 3.2 | 4.8 | 0.00 | 0.00 | 0.00 | 79 | 1015.4 |
| 20260508075536 | 12 | 164 | 1.6 | 3.2 | 0.00 | 0.00 | 0.00 | 79 | 1015.4 |
| 20260508075036 | 12 | 221 | 0.0 | 1.6 | 0.00 | 0.00 | 0.00 | 80 | 1015.3 |
| 20260508074536 | 12 | 141 | 1.6 | 1.6 | 0.00 | 0.00 | 0.00 | 80 | 1015.3 |
| 20260508074036 | 12 | 105 | 1.6 | 1.6 | 0.00 | 0.00 | 0.00 | 80 | 1015.4 |
| 20260508073536 | 12 | 206 | 1.6 | 1.6 | 0.00 | 0.00 | 0.00 | 80 | 1015.1 |
| 20260508073036 | 12 | 128 | 3.2 | 3.2 | 0.00 | 0.00 | 0.00 | 81 | 1015.2 |
| 20260508072536 | 12 | 149 | 1.6 | 3.2 | 0.00 | 0.00 | 0.00 | 81 | 1015.1 |
| 20260508072036 | 12 | 140 | 3.2 | 4.8 | 0.00 | 0.00 | 0.00 | 81 | 1015.0 |
| 20260508071536 | 12 | 261 | 1.6 | 1.6 | 0.00 | 0.00 | 0.00 | 82 | 1014.8 |
| 20260508071036 | 12 | 187 | 0.0 | 1.6 | 0.00 | 0.00 | 0.00 | 82 | 1015.1 |
| 20260508070536 | 12 | 157 | 1.6 | 1.6 | 0.00 | 0.00 | 0.00 | 82 | 1014.9 |
| 20260508070036 | 12 | 115 | 1.6 | 3.2 | 0.00 | 0.00 | 0.00 | 82 | 1014.8 |
| 20260508065536 | 11 | 210 | 0.0 | 1.6 | 0.00 | 0.00 | 0.00 | 83 | 1014.8 |
| 20260508065036 | 11 | 196 | 1.6 | 1.6 | 0.00 | 0.00 | 0.00 | 83 | 1014.7 |
| 20260508064536 | 11 | 245 | 3.2 | 4.8 | 0.00 | 0.00 | 0.00 | 83 | 1014.6 |
| 20260508064038 | 11 | 192 | 0.0 | 0.0 | 0.00 | 0.00 | 0.00 | 83 | 1014.5 |
| 20260508063536 | 11 | 181 | 3.2 | 3.2 | 0.00 | 0.00 | 0.00 | 83 | 1014.6 |
| 20260508063036 | 11 | 125 | 0.0 | 1.6 | 0.00 | 0.00 | 0.00 | 84 | 1014.5 |
| 20260508062536 | 11 | 319 | 0.0 | 0.0 | 0.00 | 0.00 | 0.00 | 84 | 1014.6 |
| 20260508062036 | 11 | 281 | 3.2 | 4.8 | 0.00 | 0.00 | 0.00 | 84 | 1014.4 |
| 20260508061536 | 11 | 117 | 1.6 | 4.8 | 0.00 | 0.00 | 0.00 | 84 | 1014.3 |
| 20260508061035 | 10 | 178 | 1.6 | 6.4 | 0.00 | 0.00 | 0.00 | 84 | 1014.2 |
| 20260508060535 | 10 | 229 | 1.6 | 3.2 | 0.00 | 0.00 | 0.00 | 84 | 1014.2 |
| 20260508060035 | 10 | 285 | 0.0 | 1.6 | 0.00 | 0.00 | 0.00 | 84 | 1014.1 |
| 20260508055535 | 10 | 184 | 0.0 | 1.6 | 0.00 | 0.00 | 0.00 | 84 | 1014.0 |
| 20260508055035 | 10 | 226 | 1.6 | 1.6 | 0.00 | 0.00 | 0.00 | 84 | 1013.8 |
| 20260508054535 | 10 | 70 | 1.6 | 3.2 | 0.00 | 0.00 | 0.00 | 84 | 1014.2 |
| 20260508054035 | 10 | 337 | 0.0 | 1.6 | 0.00 | 0.00 | 0.00 | 84 | 1013.8 |
| 20260508053535 | 10 | 116 | 1.6 | 1.6 | 0.00 | 0.00 | 0.00 | 84 | 1014.0 |
| 20260508053035 | 10 | 174 | 0.0 | 1.6 | 0.00 | 0.00 | 0.00 | 84 | 1013.8 |
| 20260508052535 | 10 | 158 | 1.6 | 1.6 | 0.00 | 0.00 | 0.00 | 84 | 1013.4 |
| 20260508052035 | 10 | 53 | 0.0 | 3.2 | 0.00 | 0.00 | 0.00 | 84 | 1013.8 |
| 20260508051535 | 9 | 115 | 0.0 | 3.2 | 0.00 | 0.00 | 0.00 | 84 | 1013.7 |
| 20260508051035 | 9 | 153 | 1.6 | 3.2 | 0.00 | 0.00 | 0.00 | 84 | 1013.7 |
| 20260508050535 | 9 | 112 | 1.6 | 1.6 | 0.00 | 0.00 | 0.00 | 84 | 1013.4 |
| 20260508050035 | 9 | 158 | 1.6 | 3.2 | 0.00 | 0.00 | 0.00 | 84 | 1013.7 |
| 20260508045535 | 9 | 181 | 3.2 | 4.8 | 0.00 | 0.00 | 0.00 | 84 | 1013.7 |
| 20260508045035 | 9 | 158 | 1.6 | 3.2 | 0.00 | 0.00 | 0.00 | 83 | 1013.6 |
| 20260508044535 | 9 | 346 | 1.6 | 3.2 | 0.00 | 0.00 | 0.00 | 83 | 1013.4 |
| 20260508044035 | 9 | 195 | 0.0 | 1.6 | 0.00 | 0.00 | 0.00 | 83 | 1013.5 |
| 20260508043535 | 9 | 194 | 1.6 | 1.6 | 0.00 | 0.00 | 0.00 | 82 | 1013.5 |
| 20260508043035 | 9 | 16 | 0.0 | 1.6 | 0.00 | 0.00 | 0.00 | 82 | 1013.4 |
| 20260508042535 | 9 | 144 | 0.0 | 0.0 | 0.00 | 0.00 | 0.00 | 82 | 1013.3 |
| 20260508042035 | 9 | 189 | 0.0 | 1.6 | 0.00 | 0.00 | 0.00 | 82 | 1013.0 |
| 20260508041535 | 9 | 157 | 1.6 | 1.6 | 0.00 | 0.00 | 0.00 | 82 | 1013.1 |
| 20260508041035 | 9 | 236 | 1.6 | 1.6 | 0.00 | 0.00 | 0.00 | 82 | 1013.2 |
| 20260508040537 | 9 | 131 | 0.0 | 1.6 | 0.00 | 0.00 | 0.00 | 82 | 1013.0 |
| 20260508040036 | 9 | 202 | 0.0 | 1.6 | 0.00 | 0.00 | 0.00 | 82 | 1013.1 |
| 20260508035535 | 9 | 14 | 0.0 | 0.0 | 0.00 | 0.00 | 0.00 | 82 | 1013.1 |
| 20260508035035 | 9 | 215 | 1.6 | 3.2 | 0.00 | 0.00 | 0.00 | 81 | 1013.1 |
| 20260508034535 | 9 | 109 | 1.6 | 1.6 | 0.00 | 0.00 | 0.00 | 81 | 1012.9 |
| 20260508034035 | 9 | 127 | 0.0 | 1.6 | 0.00 | 0.00 | 0.00 | 81 | 1012.9 |
| 20260508033535 | 9 | 191 | 0.0 | 1.6 | 0.00 | 0.00 | 0.00 | 81 | 1012.9 |
| 20260508033035 | 9 | 201 | 1.6 | 3.2 | 0.00 | 0.00 | 0.00 | 81 | 1013.0 |
| 20260508032535 | 9 | 46 | 1.6 | 4.8 | 0.00 | 0.00 | 0.00 | 80 | 1013.0 |
| 20260508032035 | 9 | 203 | 1.6 | 3.2 | 0.00 | 0.00 | 0.00 | 80 | 1012.9 |
| 20260508031535 | 9 | 149 | 1.6 | 1.6 | 0.00 | 0.00 | 0.00 | 80 | 1013.0 |
| 20260508031037 | 9 | 242 | 1.6 | 3.2 | 0.00 | 0.00 | 0.00 | 79 | 1012.9 |
| 20260508030535 | 9 | 148 | 0.0 | 1.6 | 0.00 | 0.00 | 0.00 | 79 | 1012.9 |
| 20260508030035 | 9 | 268 | 1.6 | 3.2 | 0.00 | 0.00 | 0.00 | 79 | 1013.0 |
| 20260508025535 | 9 | 173 | 0.0 | 1.6 | 0.00 | 0.00 | 0.00 | 79 | 1012.9 |
| 20260508025035 | 9 | 142 | 1.6 | 1.6 | 0.00 | 0.00 | 0.00 | 79 | 1012.9 |
| 20260508024535 | 9 | 218 | 3.2 | 3.2 | 0.00 | 0.00 | 0.00 | 78 | 1013.1 |
| 20260508024035 | 9 | 179 | 0.0 | 0.0 | 0.00 | 0.00 | 0.00 | 78 | 1012.7 |
| 20260508023535 | 9 | 204 | 1.6 | 3.2 | 0.00 | 0.00 | 0.00 | 78 | 1013.1 |
| 20260508023035 | 9 | 211 | 3.2 | 6.4 | 0.00 | 0.00 | 0.00 | 78 | 1013.0 |
| 20260508022535 | 9 | 202 | 3.2 | 6.4 | 0.00 | 0.00 | 0.00 | 78 | 1012.8 |
| 20260508022035 | 9 | 208 | 0.0 | 3.2 | 0.00 | 0.00 | 0.00 | 78 | 1013.1 |
| 20260508021535 | 9 | 198 | 3.2 | 3.2 | 0.00 | 0.00 | 0.00 | 78 | 1012.9 |
| 20260508021035 | 9 | 121 | 1.6 | 1.6 | 0.00 | 0.00 | 0.00 | 78 | 1012.8 |
| 20260508020535 | 9 | 94 | 1.6 | 1.6 | 0.00 | 0.00 | 0.00 | 77 | 1013.0 |
| 20260508020035 | 9 | 129 | 3.2 | 4.8 | 0.00 | 0.00 | 0.00 | 78 | 1012.8 |
| 20260508015535 | 9 | 226 | 1.6 | 3.2 | 0.00 | 0.00 | 0.00 | 78 | 1012.7 |
| 20260508015035 | 9 | 198 | 3.2 | 3.2 | 0.00 | 0.00 | 0.00 | 78 | 1012.8 |
| 20260508014535 | 9 | 225 | 3.2 | 4.8 | 0.00 | 0.00 | 0.00 | 78 | 1012.6 |
| 20260508014035 | 9 | 165 | 3.2 | 3.2 | 0.00 | 0.00 | 0.00 | 78 | 1012.8 |
| 20260508013535 | 9 | 95 | 3.2 | 6.4 | 0.00 | 0.00 | 0.00 | 78 | 1012.8 |
| 20260508013035 | 9 | 201 | 1.6 | 4.8 | 0.00 | 0.00 | 0.00 | 78 | 1012.7 |
| 20260508012535 | 9 | 227 | 1.6 | 3.2 | 0.00 | 0.00 | 0.00 | 77 | 1013.1 |
| 20260508012035 | 9 | 234 | 0.0 | 0.0 | 0.00 | 0.00 | 0.00 | 77 | 1013.0 |
| 20260508011537 | 9 | 178 | 1.6 | 3.2 | 0.00 | 0.00 | 0.00 | 77 | 1013.2 |
| 20260508011035 | 9 | 206 | 0.0 | 1.6 | 0.00 | 0.00 | 0.00 | 77 | 1012.8 |
| 20260508010535 | 9 | 206 | 0.0 | 1.6 | 0.00 | 0.00 | 0.00 | 77 | 1013.0 |
| 20260508010035 | 9 | 149 | 1.6 | 1.6 | 0.00 | 0.00 | 0.00 | 77 | 1013.0 |
| 20260508005535 | 9 | 186 | 0.0 | 1.6 | 0.00 | 0.00 | 0.00 | 77 | 1013.0 |
| 20260508005035 | 9 | 187 | 1.6 | 1.6 | 0.00 | 0.00 | 0.00 | 77 | 1012.8 |
| 20260508004535 | 9 | 224 | 1.6 | 3.2 | 0.00 | 0.00 | 0.00 | 77 | 1013.1 |
| 20260508004037 | 9 | 89 | 1.6 | 1.6 | 0.00 | 0.00 | 0.00 | 77 | 1013.0 |
| 20260508003535 | 9 | 82 | 3.2 | 4.8 | 0.00 | 0.00 | 0.00 | 77 | 1012.8 |
| 20260508003035 | 9 | 188 | 0.0 | 0.0 | 0.00 | 0.00 | 0.00 | 77 | 1012.8 |
| 20260508002535 | 9 | 243 | 1.6 | 4.8 | 0.00 | 0.00 | 0.00 | 77 | 1012.9 |
| 20260508002035 | 9 | 0.0 | 0.0 | 0.00 | 0.00 | 0.00 | 77 | 1012.8 | |
| 20260508001535 | 9 | 103 | 3.2 | 4.8 | 0.00 | 0.00 | 0.00 | 78 | 1012.6 |
| 20260508001035 | 9 | 103 | 3.2 | 4.8 | 0.00 | 0.00 | 0.00 | 78 | 1012.9 |
| 20260508000535 | 9 | 283 | 1.6 | 3.2 | 0.00 | 0.00 | 0.00 | 77 | 1012.7 |
| 20260508000035 | 9 | 293 | 3.2 | 4.8 | 0.00 | 0.00 | 0.00 | 77 | 1012.8 |
| 20260507235535 | 9 | 41 | 0.0 | 1.6 | 0.00 | 0.00 | 0.00 | 77 | 1012.8 |
| 20260507235035 | 9 | 308 | 1.6 | 3.2 | 0.00 | 0.00 | 0.00 | 77 | 1013.1 |
| 20260507234535 | 9 | 211 | 1.6 | 3.2 | 0.00 | 0.00 | 0.00 | 77 | 1013.0 |
| 20260507234035 | 9 | 352 | 0.0 | 0.0 | 0.00 | 0.00 | 0.00 | 77 | 1012.8 |
| 20260507233535 | 10 | 352 | 0.0 | 0.0 | 0.00 | 0.00 | 0.00 | 77 | 1013.0 |
| 20260507233034 | 10 | 232 | 1.6 | 3.2 | 0.00 | 0.00 | 0.00 | 77 | 1013.0 |
| 20260507232535 | 10 | 186 | 0.0 | 1.6 | 0.00 | 0.00 | 0.00 | 77 | 1013.0 |
| 20260507232034 | 10 | 1 | 0.0 | 1.6 | 0.00 | 0.00 | 0.00 | 77 | 1012.8 |
| 20260507231535 | 10 | 249 | 1.6 | 3.2 | 0.00 | 0.00 | 0.00 | 76 | 1012.9 |
| 20260507231034 | 10 | 128 | 1.6 | 1.6 | 0.00 | 0.00 | 0.00 | 76 | 1012.8 |
| 20260507230534 | 10 | 323 | 0.0 | 0.0 | 0.00 | 0.00 | 0.00 | 76 | 1013.1 |
| 20260507230035 | 10 | 45 | 0.0 | 0.0 | 0.00 | 0.00 | 0.00 | 76 | 1012.9 |
| 20260507225534 | 10 | 306 | 3.2 | 4.8 | 0.00 | 0.00 | 0.00 | 76 | 1013.0 |
| 20260507225034 | 10 | 171 | 0.0 | 0.0 | 0.00 | 0.00 | 0.00 | 76 | 1012.8 |
| 20260507224534 | 10 | 279 | 0.0 | 3.2 | 0.00 | 0.00 | 0.00 | 76 | 1012.8 |
| 20260507224034 | 10 | 328 | 0.0 | 1.6 | 0.00 | 0.00 | 0.00 | 76 | 1013.0 |
| 20260507223534 | 10 | 210 | 0.0 | 1.6 | 0.00 | 0.00 | 0.00 | 76 | 1013.0 |
| 20260507223034 | 10 | 212 | 1.6 | 1.6 | 0.00 | 0.00 | 0.00 | 76 | 1012.9 |
| 20260507222534 | 10 | 275 | 0.0 | 1.6 | 0.00 | 0.00 | 0.00 | 76 | 1012.8 |
| 20260507222034 | 10 | 188 | 1.6 | 3.2 | 0.00 | 0.00 | 0.00 | 76 | 1012.9 |
| 20260507221534 | 10 | 165 | 1.6 | 3.2 | 0.00 | 0.00 | 0.00 | 76 | 1012.9 |
| 20260507221034 | 10 | 64 | 1.6 | 1.6 | 0.00 | 0.00 | 0.00 | 76 | 1012.9 |
| 20260507220535 | 10 | 67 | 0.0 | 1.6 | 0.00 | 0.00 | 0.00 | 76 | 1012.9 |
| 20260507220034 | 10 | 209 | 0.0 | 1.6 | 0.00 | 0.00 | 0.00 | 76 | 1012.9 |
| 20260507215534 | 10 | 165 | 0.0 | 1.6 | 0.00 | 0.00 | 0.00 | 75 | 1012.9 |
| 20260507215034 | 10 | 196 | 0.0 | 3.2 | 0.00 | 0.00 | 0.00 | 75 | 1012.9 |
| 20260507214534 | 10 | 59 | 0.0 | 3.2 | 0.00 | 0.00 | 0.00 | 75 | 1012.7 |
| 20260507214034 | 10 | 169 | 1.6 | 1.6 | 0.00 | 0.00 | 0.00 | 75 | 1012.9 |
| 20260507213534 | 10 | 206 | 0.0 | 1.6 | 0.00 | 0.00 | 0.00 | 75 | 1012.8 |
| 20260507213034 | 10 | 120 | 0.0 | 3.2 | 0.00 | 0.00 | 0.00 | 74 | 1012.9 |
| 20260507212534 | 10 | 56 | 1.6 | 3.2 | 0.00 | 0.00 | 0.00 | 75 | 1012.8 |
| 20260507212034 | 10 | 196 | 1.6 | 3.2 | 0.00 | 0.00 | 0.00 | 74 | 1012.9 |
| 20260507211534 | 10 | 80 | 0.0 | 0.0 | 0.00 | 0.00 | 0.00 | 74 | 1013.1 |
| 20260507211034 | 10 | 36 | 0.0 | 1.6 | 0.00 | 0.00 | 0.00 | 74 | 1012.7 |
| 20260507210534 | 11 | 202 | 0.0 | 1.6 | 0.00 | 0.00 | 0.00 | 74 | 1012.7 |
| 20260507210035 | 11 | 199 | 1.6 | 3.2 | 0.00 | 0.00 | 0.00 | 74 | 1012.9 |
| 20260507205534 | 11 | 181 | 3.2 | 4.8 | 0.00 | 0.00 | 0.00 | 74 | 1013.2 |
| 20260507205035 | 11 | 201 | 1.6 | 12.9 | 0.00 | 0.00 | 0.00 | 74 | 1012.9 |
| 20260507204534 | 11 | 208 | 3.2 | 3.2 | 0.00 | 0.00 | 0.00 | 73 | 1012.7 |
| 20260507204034 | 11 | 201 | 3.2 | 9.7 | 0.00 | 0.00 | 0.00 | 73 | 1012.7 |
| 20260507203534 | 11 | 202 | 3.2 | 4.8 | 0.00 | 0.00 | 0.00 | 73 | 1012.9 |
| 20260507203034 | 11 | 189 | 4.8 | 6.4 | 0.00 | 0.00 | 0.00 | 73 | 1012.5 |
| 20260507202534 | 11 | 189 | 4.8 | 6.4 | 0.00 | 0.00 | 0.00 | 73 | 1012.7 |
| 20260507202034 | 11 | 249 | 1.6 | 4.8 | 0.00 | 0.00 | 0.00 | 73 | 1012.7 |
| 20260507201534 | 11 | 190 | 3.2 | 3.2 | 0.00 | 0.00 | 0.00 | 72 | 1012.5 |
| 20260507201034 | 11 | 204 | 3.2 | 6.4 | 0.00 | 0.00 | 0.00 | 72 | 1012.6 |
| 20260507200534 | 11 | 217 | 3.2 | 3.2 | 0.00 | 0.00 | 0.00 | 72 | 1012.7 |
| 20260507200034 | 11 | 132 | 3.2 | 4.8 | 0.00 | 0.00 | 0.00 | 72 | 1012.5 |
| 20260507195534 | 11 | 10 | 4.8 | 9.7 | 0.00 | 0.00 | 0.00 | 72 | 1012.7 |
| 20260507195034 | 11 | 197 | 3.2 | 3.2 | 0.00 | 0.00 | 0.00 | 72 | 1012.8 |
| 20260507194534 | 11 | 213 | 0.0 | 4.8 | 0.00 | 0.00 | 0.00 | 72 | 1012.4 |
| 20260507194034 | 11 | 140 | 3.2 | 4.8 | 0.00 | 0.00 | 0.00 | 71 | 1012.4 |
| 20260507193534 | 11 | 183 | 1.6 | 6.4 | 0.00 | 0.00 | 0.00 | 71 | 1012.5 |
| 20260507193034 | 11 | 140 | 3.2 | 4.8 | 0.00 | 0.00 | 0.00 | 70 | 1012.3 |
| 20260507192534 | 11 | 290 | 1.6 | 1.6 | 0.00 | 0.00 | 0.00 | 70 | 1012.2 |
| 20260507192034 | 11 | 121 | 3.2 | 3.2 | 0.00 | 0.00 | 0.00 | 70 | 1012.2 |
| 20260507191534 | 12 | 29 | 1.6 | 3.2 | 0.00 | 0.00 | 0.00 | 70 | 1012.1 |
| 20260507191036 | 12 | 185 | 3.2 | 4.8 | 0.00 | 0.00 | 0.00 | 70 | 1012.4 |
| 20260507190534 | 12 | 83 | 1.6 | 1.6 | 0.00 | 0.00 | 0.00 | 70 | 1012.1 |
| 20260507190034 | 12 | 289 | 3.2 | 4.8 | 0.00 | 0.00 | 0.00 | 70 | 1012.2 |
| 20260507185534 | 12 | 321 | 3.2 | 4.8 | 0.00 | 0.00 | 0.00 | 70 | 1012.2 |
| 20260507185034 | 12 | 177 | 3.2 | 3.2 | 0.00 | 0.00 | 0.00 | 69 | 1012.1 |
| 20260507184534 | 12 | 288 | 0.0 | 1.6 | 0.00 | 0.00 | 0.00 | 69 | 1012.1 |
| 20260507184034 | 12 | 288 | 0.0 | 1.6 | 0.00 | 0.00 | 0.00 | 69 | 1011.8 |
| 20260507183534 | 12 | 181 | 1.6 | 1.6 | 0.00 | 0.00 | 0.00 | 68 | 1012.0 |
| 20260507183034 | 12 | 32 | 1.6 | 3.2 | 0.00 | 0.00 | 0.00 | 68 | 1012.1 |
| 20260507182534 | 12 | 180 | 3.2 | 3.2 | 0.00 | 0.00 | 0.00 | 67 | 1012.1 |
| 20260507182034 | 12 | 185 | 1.6 | 3.2 | 0.00 | 0.00 | 0.00 | 67 | 1011.8 |
| 20260507181534 | 12 | 237 | 3.2 | 6.4 | 0.00 | 0.00 | 0.00 | 67 | 1011.9 |
| 20260507181034 | 12 | 119 | 6.4 | 12.9 | 0.00 | 0.00 | 0.00 | 68 | 1011.8 |
| 20260507180534 | 12 | 272 | 1.6 | 3.2 | 0.00 | 0.00 | 0.00 | 68 | 1011.8 |
| 20260507180034 | 12 | 183 | 3.2 | 4.8 | 0.00 | 0.00 | 0.00 | 67 | 1011.8 |
| 20260507175534 | 12 | 114 | 1.6 | 1.6 | 0.00 | 0.00 | 0.00 | 67 | 1011.9 |
| 20260507175034 | 12 | 79 | 0.0 | 1.6 | 0.00 | 0.00 | 0.00 | 67 | 1012.0 |
| 20260507174534 | 12 | 192 | 1.6 | 1.6 | 0.00 | 0.00 | 0.00 | 66 | 1011.8 |
| 20260507174034 | 12 | 260 | 3.2 | 4.8 | 0.00 | 0.00 | 0.00 | 66 | 1012.0 |
| 20260507173534 | 13 | 192 | 0.0 | 1.6 | 0.00 | 0.00 | 0.00 | 65 | 1012.0 |
| 20260507173034 | 13 | 301 | 1.6 | 1.6 | 0.00 | 0.00 | 0.00 | 64 | 1011.9 |
| 20260507172534 | 13 | 153 | 0.0 | 1.6 | 0.00 | 0.00 | 0.00 | 64 | 1011.9 |
| 20260507172034 | 13 | 180 | 1.6 | 9.7 | 0.00 | 0.00 | 0.00 | 63 | 1011.9 |
| 20260507171534 | 14 | 177 | 3.2 | 3.2 | 0.00 | 0.00 | 0.00 | 63 | 1011.9 |
| 20260507171034 | 14 | 246 | 3.2 | 4.8 | 0.00 | 0.00 | 0.00 | 63 | 1011.9 |
| 20260507170534 | 15 | 300 | 1.6 | 1.6 | 0.00 | 0.00 | 0.00 | 63 | 1012.2 |
| 20260507170034 | 15 | 57 | 3.2 | 4.8 | 0.00 | 0.00 | 0.00 | 62 | 1012.0 |
| 20260507165534 | 15 | 240 | 1.6 | 1.6 | 0.00 | 0.00 | 0.00 | 62 | 1012.0 |
| 20260507165034 | 15 | 175 | 3.2 | 4.8 | 0.00 | 0.00 | 0.00 | 62 | 1012.0 |
| 20260507164534 | 15 | 177 | 3.2 | 3.2 | 0.00 | 0.00 | 0.00 | 62 | 1012.0 |
| 20260507164034 | 15 | 167 | 1.6 | 3.2 | 0.00 | 0.00 | 0.00 | 63 | 1012.4 |
| 20260507163534 | 15 | 260 | 1.6 | 3.2 | 0.00 | 0.00 | 0.00 | 63 | 1012.2 |
| 20260507163034 | 15 | 94 | 3.2 | 4.8 | 0.00 | 0.00 | 0.00 | 63 | 1012.3 |
| 20260507162534 | 15 | 264 | 1.6 | 1.6 | 0.00 | 0.00 | 0.00 | 63 | 1012.3 |
| 20260507162034 | 15 | 116 | 0.0 | 1.6 | 0.00 | 0.00 | 0.00 | 63 | 1012.2 |
| 20260507161534 | 15 | 185 | 1.6 | 1.6 | 0.00 | 0.00 | 0.00 | 62 | 1012.4 |
| 20260507161034 | 15 | 59 | 0.0 | 1.6 | 0.00 | 0.00 | 0.00 | 62 | 1012.0 |
| 20260507160534 | 15 | 200 | 1.6 | 4.8 | 0.00 | 0.00 | 0.00 | 62 | 1012.1 |
| 20260507160034 | 15 | 152 | 1.6 | 3.2 | 0.00 | 0.00 | 0.00 | 62 | 1011.9 |
| 20260507155534 | 15 | 196 | 1.6 | 3.2 | 0.00 | 0.00 | 0.00 | 62 | 1012.1 |
| 20260507155034 | 15 | 195 | 1.6 | 3.2 | 0.00 | 0.00 | 0.00 | 62 | 1012.1 |
| 20260507154534 | 15 | 205 | 6.4 | 9.7 | 0.00 | 0.00 | 0.00 | 62 | 1012.3 |
| 20260507154034 | 15 | 166 | 3.2 | 4.8 | 0.00 | 0.00 | 0.00 | 63 | 1012.2 |
| 20260507153534 | 15 | 201 | 0.0 | 1.6 | 0.00 | 0.00 | 0.00 | 63 | 1012.3 |
| 20260507153033 | 15 | 170 | 3.2 | 11.3 | 0.00 | 0.00 | 0.00 | 63 | 1012.3 |
| 20260507152533 | 15 | 344 | 3.2 | 6.4 | 0.00 | 0.00 | 0.00 | 63 | 1012.4 |
| 20260507152033 | 15 | 32 | 3.2 | 3.2 | 0.00 | 0.00 | 0.00 | 64 | 1012.2 |
| 20260507151534 | 15 | 205 | 3.2 | 4.8 | 0.00 | 0.00 | 0.00 | 63 | 1012.4 |
| 20260507151034 | 15 | 189 | 1.6 | 3.2 | 0.00 | 0.00 | 0.00 | 63 | 1012.4 |
| 20260507150534 | 15 | 201 | 3.2 | 4.8 | 0.00 | 0.00 | 0.00 | 63 | 1012.5 |
| 20260507150034 | 15 | 258 | 3.2 | 3.2 | 0.00 | 0.00 | 0.00 | 63 | 1012.7 |
| 20260507145533 | 15 | 179 | 6.4 | 6.4 | 0.00 | 0.00 | 0.00 | 63 | 1012.6 |
| 20260507145033 | 15 | 181 | 1.6 | 6.4 | 0.00 | 0.00 | 0.00 | 64 | 1012.3 |
| 20260507144534 | 15 | 209 | 3.2 | 6.4 | 0.00 | 0.00 | 0.00 | 63 | 1012.6 |
| 20260507144033 | 15 | 218 | 3.2 | 6.4 | 0.00 | 0.00 | 0.00 | 65 | 1012.7 |
| 20260507143533 | 15 | 128 | 3.2 | 3.2 | 0.00 | 0.00 | 0.00 | 65 | 1012.9 |